createdAt,value
2017-09-12T00:00:12.035Z,59.81
2017-09-12T00:00:52.487Z,59.52
2017-09-12T00:01:32.961Z,59.33
2017-09-12T00:02:13.402Z,59.62
2017-09-12T00:02:53.856Z,59.52
2017-09-12T00:03:34.308Z,59.52
2017-09-12T00:04:14.764Z,59.81
2017-09-12T00:04:55.224Z,59.33
2017-09-12T00:05:35.672Z,59.72
2017-09-12T00:06:16.124Z,59.62
2017-09-12T00:06:56.579Z,59.72
2017-09-12T00:07:37.025Z,59.72
2017-09-12T00:08:17.486Z,59.91
2017-09-12T00:08:57.932Z,59.33
2017-09-12T00:09:38.387Z,59.52
2017-09-12T00:10:18.874Z,59.81
2017-09-12T00:10:59.292Z,59.81
2017-09-12T00:11:39.745Z,59.43
2017-09-12T00:12:20.203Z,59.4
2017-09-12T00:13:00.657Z,59.78
2017-09-12T00:13:41.109Z,59.49
2017-09-12T00:14:21.567Z,59.4
2017-09-12T00:15:02.020Z,59.3
2017-09-12T00:15:42.475Z,59.4
2017-09-12T00:16:22.929Z,59.4
2017-09-12T00:17:03.382Z,59.59
2017-09-12T00:17:43.838Z,59.78
2017-09-12T00:18:24.293Z,59.49
2017-09-12T00:19:04.751Z,59.78
2017-09-12T00:19:45.210Z,59.3
2017-09-12T00:20:25.650Z,59.78
2017-09-12T00:21:06.109Z,59.23
2017-09-12T00:21:46.545Z,59.49
2017-09-12T00:22:26.995Z,59.59
2017-09-12T00:23:07.502Z,59.52
2017-09-12T00:23:47.962Z,59.69
2017-09-12T00:24:28.418Z,59.43
2017-09-12T00:25:08.875Z,59.49
2017-09-12T00:25:49.334Z,59.49
2017-09-12T00:26:29.783Z,59.43
2017-09-12T00:27:10.248Z,59.49
2017-09-12T00:27:50.679Z,59.62
2017-09-12T00:28:31.125Z,59.33
2017-09-12T00:29:11.576Z,59.23
2017-09-12T00:29:52.016Z,59.52
2017-09-12T00:30:32.530Z,59.33
2017-09-12T00:31:12.996Z,59.33
2017-09-12T00:31:53.453Z,59.43
2017-09-12T00:32:34.015Z,59.43
2017-09-12T00:33:14.465Z,59.14
2017-09-12T00:33:54.921Z,59.23
2017-09-12T00:34:35.380Z,59.2
2017-09-12T00:35:15.837Z,59.33
2017-09-12T00:35:56.287Z,59.23
2017-09-12T00:36:36.742Z,59.23
2017-09-12T00:37:17.199Z,59.01
2017-09-12T00:37:57.658Z,59.01
2017-09-12T00:38:38.114Z,59.2
2017-09-12T00:39:18.562Z,59.23
2017-09-12T00:39:59.015Z,59.2
2017-09-12T00:40:39.483Z,59.01
2017-09-12T00:41:19.942Z,59.2
2017-09-12T00:42:00.387Z,59.11
2017-09-12T00:42:40.838Z,59.11
2017-09-12T00:43:21.291Z,58.92
2017-09-12T00:44:01.737Z,59.01
2017-09-12T00:44:42.213Z,59.01
2017-09-12T00:45:22.666Z,59.2
2017-09-12T00:46:03.117Z,59.2
2017-09-12T00:46:43.576Z,59.11
2017-09-12T00:47:24.026Z,59.2
2017-09-12T00:48:04.478Z,59.2
2017-09-12T00:48:44.935Z,58.92
2017-09-12T00:49:25.384Z,58.92
2017-09-12T00:50:05.833Z,58.92
2017-09-12T00:50:46.287Z,59.11
2017-09-12T00:51:26.743Z,58.92
2017-09-12T00:52:07.198Z,59.01
2017-09-12T00:52:47.650Z,58.82
2017-09-12T00:53:28.103Z,59.01
2017-09-12T00:54:08.547Z,58.72
2017-09-12T00:54:49.007Z,59.11
2017-09-12T00:55:29.463Z,58.72
2017-09-12T00:56:09.919Z,58.82
2017-09-12T00:56:50.356Z,58.82
2017-09-12T00:57:30.812Z,59.11
2017-09-12T00:58:11.268Z,59.2
2017-09-12T00:58:51.722Z,59.2
2017-09-12T00:59:32.228Z,58.72
2017-09-12T01:00:12.682Z,58.63
2017-09-12T01:00:53.134Z,58.63
2017-09-12T01:01:33.589Z,58.72
2017-09-12T01:02:14.041Z,59.01
2017-09-12T01:02:54.495Z,59.01
2017-09-12T01:03:34.951Z,58.92
2017-09-12T01:04:15.403Z,58.82
2017-09-12T01:04:55.863Z,59.01
2017-09-12T01:05:36.317Z,58.82
2017-09-12T01:06:16.779Z,58.92
2017-09-12T01:06:57.234Z,59.01
2017-09-12T01:07:37.691Z,58.92
2017-09-12T01:08:18.141Z,58.82
2017-09-12T01:08:58.601Z,58.92
2017-09-12T01:09:39.050Z,58.72
2017-09-12T01:10:19.498Z,58.82
2017-09-12T01:10:59.969Z,58.72
2017-09-12T01:11:40.423Z,58.92
2017-09-12T01:12:20.874Z,59.01
2017-09-12T01:13:01.335Z,58.72
2017-09-12T01:13:41.785Z,58.92
2017-09-12T01:14:22.242Z,59.01
2017-09-12T01:15:02.681Z,58.92
2017-09-12T01:15:43.129Z,58.72
2017-09-12T01:16:23.574Z,58.63
2017-09-12T01:17:04.112Z,59.01
2017-09-12T01:17:44.565Z,58.72
2017-09-12T01:18:25.016Z,58.53
2017-09-12T01:19:05.564Z,58.82
2017-09-12T01:19:46.020Z,58.72
2017-09-12T01:20:26.482Z,58.92
2017-09-12T01:21:06.933Z,58.92
2017-09-12T01:21:47.389Z,58.92
2017-09-12T01:22:27.843Z,58.92
2017-09-12T01:23:08.357Z,58.92
2017-09-12T01:23:48.799Z,59.01
2017-09-12T01:24:29.265Z,59.11
2017-09-12T01:25:09.722Z,59.01
2017-09-12T01:25:50.173Z,58.92
2017-09-12T01:26:30.629Z,59.01
2017-09-12T01:27:11.082Z,58.92
2017-09-12T01:27:51.527Z,58.72
2017-09-12T01:28:31.995Z,59.01
2017-09-12T01:29:12.453Z,59.01
2017-09-12T01:29:52.909Z,58.92
2017-09-12T01:30:33.364Z,58.92
2017-09-12T01:31:13.816Z,59.01
2017-09-12T01:31:54.275Z,58.92
2017-09-12T01:32:34.725Z,59.11
2017-09-12T01:33:15.182Z,58.92
2017-09-12T01:33:55.633Z,59.01
2017-09-12T01:34:36.085Z,58.92
2017-09-12T01:35:16.531Z,58.72
2017-09-12T01:35:56.988Z,58.82
2017-09-12T01:36:37.435Z,59.2
2017-09-12T01:37:17.901Z,58.92
2017-09-12T01:37:58.348Z,58.82
2017-09-12T01:38:38.805Z,58.82
2017-09-12T01:39:19.264Z,59.01
2017-09-12T01:39:59.723Z,59.01
2017-09-12T01:40:40.219Z,58.63
2017-09-12T01:41:20.698Z,58.63
2017-09-12T01:42:01.159Z,58.82
2017-09-12T01:42:41.609Z,58.63
2017-09-12T01:43:22.139Z,58.72
2017-09-12T01:44:02.578Z,59.01
2017-09-12T01:44:43.026Z,59.11
2017-09-12T01:45:23.574Z,58.92
2017-09-12T01:46:04.016Z,59.11
2017-09-12T01:46:44.467Z,58.72
2017-09-12T01:47:24.936Z,58.72
2017-09-12T01:48:05.369Z,58.72
2017-09-12T01:48:45.828Z,58.92
2017-09-12T01:49:26.274Z,58.82
2017-09-12T01:50:06.731Z,58.63
2017-09-12T01:50:47.193Z,58.63
2017-09-12T01:51:27.650Z,58.92
2017-09-12T01:52:08.105Z,58.92
2017-09-12T01:52:48.575Z,58.92
2017-09-12T01:53:29.023Z,59.01
2017-09-12T01:54:09.469Z,58.92
2017-09-12T01:54:49.926Z,58.92
2017-09-12T01:55:30.375Z,58.6
2017-09-12T01:56:10.862Z,58.82
2017-09-12T01:56:51.311Z,58.63
2017-09-12T01:57:31.771Z,58.89
2017-09-12T01:58:12.229Z,58.89
2017-09-12T01:58:52.677Z,58.5
2017-09-12T01:59:33.105Z,58.5
2017-09-12T02:00:13.557Z,59.08
2017-09-12T02:00:54.011Z,59.11
2017-09-12T02:01:34.462Z,59.08
2017-09-12T02:02:14.919Z,59.2
2017-09-12T02:02:55.378Z,58.79
2017-09-12T02:03:35.831Z,58.5
2017-09-12T02:04:16.283Z,58.7
2017-09-12T02:04:56.742Z,58.7
2017-09-12T02:05:37.190Z,58.79
2017-09-12T02:06:17.661Z,59.08
2017-09-12T02:06:58.099Z,58.79
2017-09-12T02:07:38.559Z,58.7
2017-09-12T02:08:19.013Z,58.79
2017-09-12T02:08:59.466Z,59.08
2017-09-12T02:09:39.922Z,58.98
2017-09-12T02:10:20.376Z,58.89
2017-09-12T02:11:00.834Z,58.98
2017-09-12T02:11:41.283Z,58.79
2017-09-12T02:12:21.781Z,58.7
2017-09-12T02:13:02.233Z,58.7
2017-09-12T02:13:42.693Z,58.98
2017-09-12T02:14:23.158Z,58.79
2017-09-12T02:15:03.610Z,58.98
2017-09-12T02:15:44.084Z,59.08
2017-09-12T02:16:24.513Z,58.98
2017-09-12T02:17:04.961Z,59.08
2017-09-12T02:17:45.495Z,58.98
2017-09-12T02:18:25.953Z,58.79
2017-09-12T02:19:06.474Z,58.89
2017-09-12T02:19:46.931Z,58.7
2017-09-12T02:20:27.383Z,58.89
2017-09-12T02:21:07.827Z,58.89
2017-09-12T02:21:48.284Z,59.01
2017-09-12T02:22:28.748Z,59.08
2017-09-12T02:23:09.188Z,59.01
2017-09-12T02:23:49.634Z,58.89
2017-09-12T02:26:07.543Z,58.7
2017-09-12T02:26:47.983Z,59.08
2017-09-12T02:27:28.439Z,58.98
2017-09-12T02:28:08.916Z,58.98
2017-09-12T02:28:49.371Z,58.5
2017-09-12T02:29:29.824Z,58.98
2017-09-12T02:30:10.281Z,59.17
2017-09-12T02:30:50.735Z,58.89
2017-09-12T02:31:31.187Z,58.79
2017-09-12T02:32:11.645Z,58.89
2017-09-12T02:32:52.094Z,59.08
2017-09-12T02:33:32.548Z,58.98
2017-09-12T02:34:12.998Z,59.08
2017-09-12T02:34:53.495Z,59.08
2017-09-12T02:35:33.912Z,58.79
2017-09-12T02:36:14.371Z,58.98
2017-09-12T02:36:54.828Z,58.79
2017-09-12T02:37:35.283Z,58.7
2017-09-12T02:38:15.741Z,58.72
2017-09-12T02:38:56.191Z,59.08
2017-09-12T02:39:36.656Z,58.98
2017-09-12T02:40:17.095Z,58.89
2017-09-12T02:40:57.547Z,58.89
2017-09-12T02:41:38.005Z,58.89
2017-09-12T02:42:18.461Z,59.01
2017-09-12T02:42:58.910Z,58.82
2017-09-12T02:43:39.361Z,58.82
2017-09-12T02:44:19.810Z,58.98
2017-09-12T02:45:00.262Z,58.89
2017-09-12T02:45:40.712Z,58.89
2017-09-12T02:46:21.218Z,58.89
2017-09-12T02:47:01.668Z,58.98
2017-09-12T02:47:42.143Z,59.01
2017-09-12T02:48:22.587Z,58.98
2017-09-12T02:49:03.017Z,59.01
2017-09-12T02:49:43.474Z,59.01
2017-09-12T02:50:23.921Z,58.92
2017-09-12T02:51:04.383Z,58.72
2017-09-12T02:51:44.841Z,58.92
2017-09-12T02:52:25.290Z,59.01
2017-09-12T02:53:05.736Z,58.82
2017-09-12T02:53:46.191Z,59.01
2017-09-12T02:54:26.641Z,58.92
2017-09-12T02:55:07.095Z,58.72
2017-09-12T02:55:47.553Z,58.72
2017-09-12T02:56:28.002Z,58.82
2017-09-12T02:57:08.454Z,59.11
2017-09-12T02:57:48.901Z,59.01
2017-09-12T02:58:29.368Z,58.92
2017-09-12T02:59:09.818Z,58.92
2017-09-12T02:59:50.274Z,58.72
2017-09-12T03:00:30.725Z,58.92
2017-09-12T03:01:11.184Z,58.82
2017-09-12T03:01:51.639Z,59.01
2017-09-12T03:02:32.096Z,59.01
2017-09-12T03:03:12.542Z,59.2
2017-09-12T03:03:52.992Z,59.11
2017-09-12T03:04:33.448Z,59.11
2017-09-12T03:05:13.908Z,58.92
2017-09-12T03:05:54.352Z,59.01
2017-09-12T03:06:34.813Z,58.92
2017-09-12T03:07:15.265Z,59.2
2017-09-12T03:07:55.715Z,59.2
2017-09-12T03:08:36.172Z,59.4
2017-09-12T03:09:16.629Z,59.4
2017-09-12T03:09:57.081Z,59.49
2017-09-12T03:10:37.537Z,59.3
2017-09-12T03:11:17.991Z,59.4
2017-09-12T03:11:58.437Z,59.2
2017-09-12T03:12:38.890Z,59.2
2017-09-12T03:13:19.348Z,59.2
2017-09-12T03:13:59.805Z,59.14
2017-09-12T03:14:40.266Z,59.23
2017-09-12T03:15:20.725Z,59.43
2017-09-12T03:16:01.182Z,59.4
2017-09-12T03:16:41.642Z,59.4
2017-09-12T03:17:22.198Z,59.43
2017-09-12T03:18:02.654Z,59.52
2017-09-12T03:18:43.111Z,59.52
2017-09-12T03:19:23.561Z,59.43
2017-09-12T03:20:04.013Z,59.43
2017-09-12T03:20:44.472Z,59.62
2017-09-12T03:21:24.931Z,59.33
2017-09-12T03:22:05.387Z,59.33
2017-09-12T03:22:45.844Z,59.62
2017-09-12T03:23:26.400Z,59.43
2017-09-12T03:24:06.856Z,59.3
2017-09-12T03:24:47.314Z,59.49
2017-09-12T03:25:27.760Z,59.3
2017-09-12T03:26:08.219Z,59.3
2017-09-12T03:26:48.677Z,59.49
2017-09-12T03:27:29.129Z,59.69
2017-09-12T03:28:09.586Z,59.78
2017-09-12T03:28:50.023Z,59.88
2017-09-12T03:29:30.480Z,59.69
2017-09-12T03:30:10.964Z,59.49
2017-09-12T03:30:51.416Z,59.88
2017-09-12T03:31:31.861Z,59.59
2017-09-12T03:32:12.322Z,59.69
2017-09-12T03:32:52.775Z,59.69
2017-09-12T03:33:33.231Z,59.69
2017-09-12T03:34:13.680Z,59.78
2017-09-12T03:34:54.147Z,59.78
2017-09-12T03:35:34.595Z,59.78
2017-09-12T03:36:15.043Z,59.78
2017-09-12T03:36:55.493Z,59.49
2017-09-12T03:37:35.952Z,59.59
2017-09-12T03:38:16.402Z,59.4
2017-09-12T03:38:56.844Z,59.49
2017-09-12T03:39:37.297Z,59.49
2017-09-12T03:40:17.757Z,59.49
2017-09-12T03:40:58.211Z,59.59
2017-09-12T03:41:38.656Z,59.49
2017-09-12T03:42:19.114Z,59.59
2017-09-12T03:42:59.561Z,59.59
2017-09-12T03:43:40.020Z,59.59
2017-09-12T03:44:20.476Z,59.59
2017-09-12T03:45:00.922Z,59.4
2017-09-12T03:45:41.368Z,59.59
2017-09-12T03:46:21.819Z,59.2
2017-09-12T03:47:02.273Z,59.59
2017-09-12T03:47:42.732Z,59.3
2017-09-12T03:48:23.180Z,59.69
2017-09-12T03:49:03.634Z,59.49
2017-09-12T03:49:44.084Z,59.11
2017-09-12T03:50:24.536Z,59.59
2017-09-12T03:51:04.999Z,59.59
2017-09-12T03:51:45.454Z,59.69
2017-09-12T03:52:25.908Z,59.69
2017-09-12T03:53:06.368Z,59.49
2017-09-12T03:53:46.824Z,59.66
2017-09-12T03:54:27.279Z,59.56
2017-09-12T03:55:07.736Z,59.78
2017-09-12T03:55:48.189Z,59.59
2017-09-12T03:56:28.656Z,59.49
2017-09-12T03:57:09.112Z,59.69
2017-09-12T03:57:49.569Z,59.49
2017-09-12T03:58:30.021Z,59.59
2017-09-12T03:59:10.476Z,59.59
2017-09-12T03:59:50.929Z,59.69
2017-09-12T04:00:31.377Z,59.59
2017-09-12T04:01:11.835Z,59.69
2017-09-12T04:01:52.285Z,59.59
2017-09-12T04:02:32.736Z,59.69
2017-09-12T04:03:13.206Z,59.49
2017-09-12T04:03:53.641Z,59.49
2017-09-12T04:04:34.096Z,59.23
2017-09-12T04:05:14.549Z,59.23
2017-09-12T04:05:55.000Z,58.95
2017-09-12T04:06:35.456Z,58.85
2017-09-12T04:07:15.971Z,58.85
2017-09-12T04:07:56.415Z,59.04
2017-09-12T04:08:36.867Z,58.95
2017-09-12T04:09:17.323Z,58.85
2017-09-12T04:09:57.774Z,59.04
2017-09-12T04:10:38.224Z,58.95
2017-09-12T04:11:18.677Z,59.04
2017-09-12T04:11:59.132Z,58.95
2017-09-12T04:12:39.592Z,58.85
2017-09-12T04:13:20.045Z,59.04
2017-09-12T04:14:00.504Z,59.17
2017-09-12T04:14:40.958Z,58.78
2017-09-12T04:15:21.489Z,58.49
2017-09-12T04:16:01.942Z,58.59
2017-09-12T04:16:42.403Z,58.59
2017-09-12T04:17:22.861Z,58.4
2017-09-12T04:18:03.315Z,58.69
2017-09-12T04:18:43.768Z,58.3
2017-09-12T04:19:24.222Z,58.2
2017-09-12T04:20:04.679Z,58.4
2017-09-12T04:20:45.134Z,58.3
2017-09-12T04:21:25.588Z,58.3
2017-09-12T04:22:06.046Z,58.3
2017-09-12T04:22:46.501Z,58.4
2017-09-12T04:23:26.983Z,58.49
2017-09-12T04:24:07.441Z,58.3
2017-09-12T04:24:47.901Z,58.3
2017-09-12T04:25:28.381Z,58.49
2017-09-12T04:26:08.835Z,58.3
2017-09-12T04:26:49.285Z,58.4
2017-09-12T04:27:29.744Z,58.49
2017-09-12T04:28:10.202Z,58.49
2017-09-12T04:28:50.649Z,58.49
2017-09-12T04:29:31.089Z,58.49
2017-09-12T04:30:11.537Z,58.4
2017-09-12T04:30:51.994Z,58.3
2017-09-12T04:31:32.459Z,58.3
2017-09-12T04:32:12.917Z,58.59
2017-09-12T04:32:53.375Z,58.69
2017-09-12T04:33:33.817Z,58.59
2017-09-12T04:34:14.272Z,58.69
2017-09-12T04:34:54.734Z,58.59
2017-09-12T04:35:35.186Z,58.59
2017-09-12T04:36:15.638Z,57.82
2017-09-12T04:36:56.095Z,58.01
2017-09-12T04:37:36.549Z,58.01
2017-09-12T04:38:17.001Z,58.11
2017-09-12T04:38:57.460Z,58.01
2017-09-12T04:39:37.913Z,58.01
2017-09-12T04:40:18.375Z,58.01
2017-09-12T04:40:58.833Z,58.2
2017-09-12T04:41:39.282Z,58.01
2017-09-12T04:42:19.743Z,58.01
2017-09-12T04:43:00.195Z,58.2
2017-09-12T04:43:40.654Z,58.11
2017-09-12T04:44:21.170Z,58.3
2017-09-12T04:45:01.638Z,58.11
2017-09-12T04:45:42.091Z,58.2
2017-09-12T04:46:22.558Z,58.2
2017-09-12T04:47:03.012Z,58.2
2017-09-12T04:47:43.463Z,58.01
2017-09-12T04:48:23.952Z,57.62
2017-09-12T04:49:04.365Z,57.72
2017-09-12T04:49:44.840Z,58.11
2017-09-12T04:50:25.293Z,58.2
2017-09-12T04:51:05.742Z,58.2
2017-09-12T04:51:46.266Z,58.2
2017-09-12T04:52:26.722Z,58.01
2017-09-12T04:53:07.171Z,58.2
2017-09-12T04:53:47.630Z,58.11
2017-09-12T04:54:28.083Z,58.01
2017-09-12T04:55:08.534Z,58.11
2017-09-12T04:55:48.985Z,58.01
2017-09-12T04:56:29.444Z,58.11
2017-09-12T04:57:09.902Z,58.2
2017-09-12T04:57:50.351Z,58.01
2017-09-12T04:58:30.809Z,58.3
2017-09-12T04:59:11.289Z,58.11
2017-09-12T04:59:51.744Z,58.01
2017-09-12T05:00:32.196Z,58.2
2017-09-12T05:01:12.644Z,58.3
2017-09-12T05:01:53.100Z,58.11
2017-09-12T05:02:33.546Z,58.11
2017-09-12T05:03:14.000Z,58.2
2017-09-12T05:03:54.453Z,57.92
2017-09-12T05:04:34.983Z,58.2
2017-09-12T05:05:15.441Z,58.3
2017-09-12T05:05:55.899Z,57.92
2017-09-12T05:06:36.353Z,58.11
2017-09-12T05:07:16.806Z,58.11
2017-09-12T05:07:57.255Z,57.92
2017-09-12T05:08:37.715Z,58.01
2017-09-12T05:09:18.170Z,58.01
2017-09-12T05:09:58.621Z,58.01
2017-09-12T05:10:39.075Z,58.01
2017-09-12T05:11:19.533Z,58.11
2017-09-12T05:11:59.969Z,58.2
2017-09-12T05:12:40.424Z,58.11
2017-09-12T05:13:20.883Z,58.11
2017-09-12T05:14:01.341Z,58.11
2017-09-12T05:14:41.797Z,58.3
2017-09-12T05:15:22.253Z,58.11
2017-09-12T05:16:02.707Z,58.11
2017-09-12T05:16:43.140Z,58.01
2017-09-12T05:17:23.602Z,58.01
2017-09-12T05:18:04.117Z,58.11
2017-09-12T05:18:44.761Z,58.11
2017-09-12T05:19:25.217Z,58.11
2017-09-12T05:20:05.674Z,58.01
2017-09-12T05:20:46.134Z,58.01
2017-09-12T05:21:26.588Z,58.01
2017-09-12T05:22:07.041Z,58.01
2017-09-12T05:22:47.505Z,58.04
2017-09-12T05:23:27.963Z,58.2
2017-09-12T05:24:08.417Z,58.01
2017-09-12T05:24:48.855Z,58.2
2017-09-12T05:25:29.309Z,58.11
2017-09-12T05:26:09.795Z,58.04
2017-09-12T05:26:50.247Z,58.14
2017-09-12T05:27:30.701Z,58.14
2017-09-12T05:28:11.173Z,58.2
2017-09-12T05:28:51.632Z,57.94
2017-09-12T05:29:32.084Z,58.3
2017-09-12T05:30:12.542Z,58.3
2017-09-12T05:30:53.004Z,58.3
2017-09-12T05:31:33.461Z,58.11
2017-09-12T05:32:13.919Z,58.11
2017-09-12T05:32:54.371Z,58.01
2017-09-12T05:33:34.829Z,58.69
2017-09-12T05:34:15.282Z,58.2
2017-09-12T05:34:55.738Z,58.59
2017-09-12T05:35:36.256Z,58.59
2017-09-12T05:36:16.711Z,58.49
2017-09-12T05:36:57.165Z,58.01
2017-09-12T05:37:37.624Z,58.2
2017-09-12T05:38:18.086Z,58.01
2017-09-12T05:38:58.532Z,57.92
2017-09-12T05:39:38.990Z,58.2
2017-09-12T05:40:19.464Z,58.01
2017-09-12T05:40:59.917Z,57.92
2017-09-12T05:41:40.378Z,57.92
2017-09-12T05:42:20.836Z,57.92
2017-09-12T05:43:01.295Z,58.11
2017-09-12T05:43:41.742Z,58.11
2017-09-12T05:44:22.276Z,57.92
2017-09-12T05:45:02.738Z,58.01
2017-09-12T05:45:43.197Z,58.2
2017-09-12T05:46:23.673Z,58.2
2017-09-12T05:47:04.208Z,58.01
2017-09-12T05:47:44.663Z,58.01
2017-09-12T05:48:25.121Z,58.2
2017-09-12T05:49:05.662Z,58.2
2017-09-12T05:49:46.015Z,58.2
2017-09-12T05:50:26.478Z,57.72
2017-09-12T05:51:06.934Z,57.62
2017-09-12T05:51:47.394Z,57.72
2017-09-12T05:52:27.849Z,57.53
2017-09-12T05:53:08.303Z,57.72
2017-09-12T05:53:48.754Z,57.92
2017-09-12T05:54:29.278Z,57.82
2017-09-12T05:55:09.739Z,57.82
2017-09-12T05:55:50.206Z,58.11
2017-09-12T05:56:30.665Z,58.01
2017-09-12T05:57:11.128Z,58.11
2017-09-12T05:57:51.582Z,57.82
2017-09-12T05:58:32.028Z,58.01
2017-09-12T05:59:12.484Z,57.82
2017-09-12T05:59:52.947Z,57.72
2017-09-12T06:00:33.481Z,57.82
2017-09-12T06:01:13.931Z,57.62
2017-09-12T06:01:54.395Z,57.43
2017-09-12T06:02:34.851Z,57.82
2017-09-12T06:03:15.314Z,57.62
2017-09-12T06:03:55.763Z,57.62
2017-09-12T06:04:36.210Z,57.72
2017-09-12T06:05:16.671Z,57.82
2017-09-12T06:05:57.125Z,57.82
2017-09-12T06:06:37.588Z,57.53
2017-09-12T06:07:18.043Z,57.72
2017-09-12T06:07:58.493Z,57.62
2017-09-12T06:08:38.957Z,57.72
2017-09-12T06:09:19.413Z,57.62
2017-09-12T06:09:59.867Z,57.62
2017-09-12T06:10:40.323Z,58.11
2017-09-12T06:11:20.774Z,57.72
2017-09-12T06:12:01.232Z,57.62
2017-09-12T06:12:41.693Z,57.82
2017-09-12T06:13:22.142Z,58.11
2017-09-12T06:14:02.600Z,57.72
2017-09-12T06:14:43.047Z,58.01
2017-09-12T06:15:23.494Z,57.94
2017-09-12T06:16:03.952Z,57.82
2017-09-12T06:16:44.407Z,57.82
2017-09-12T06:17:24.861Z,57.62
2017-09-12T06:18:05.305Z,57.65
2017-09-12T06:18:45.839Z,57.75
2017-09-12T06:19:29.050Z,57.37
2017-09-12T06:20:09.509Z,57.37
2017-09-12T06:20:49.966Z,57.75
2017-09-12T06:21:30.415Z,57.65
2017-09-12T06:22:10.867Z,57.65
2017-09-12T06:22:51.345Z,57.56
2017-09-12T06:23:31.830Z,57.94
2017-09-12T06:24:12.275Z,57.94
2017-09-12T06:24:52.733Z,57.85
2017-09-12T06:25:33.212Z,57.85
2017-09-12T06:26:13.651Z,57.94
2017-09-12T06:26:54.109Z,57.65
2017-09-12T06:27:34.607Z,57.53
2017-09-12T06:28:15.072Z,57.82
2017-09-12T06:28:55.527Z,57.82
2017-09-12T06:29:35.982Z,57.82
2017-09-12T06:30:16.447Z,57.72
2017-09-12T06:30:56.901Z,57.82
2017-09-12T06:31:37.348Z,57.82
2017-09-12T06:32:17.823Z,57.62
2017-09-12T06:32:58.283Z,57.72
2017-09-12T06:33:38.726Z,57.72
2017-09-12T06:34:19.187Z,57.53
2017-09-12T06:34:59.649Z,57.72
2017-09-12T06:35:40.110Z,57.82
2017-09-12T06:36:20.568Z,57.62
2017-09-12T06:37:01.078Z,57.82
2017-09-12T06:37:41.552Z,58.01
2017-09-12T06:38:22.023Z,57.82
2017-09-12T06:39:02.476Z,57.92
2017-09-12T06:39:42.925Z,57.92
2017-09-12T06:40:23.385Z,58.01
2017-09-12T06:41:03.843Z,57.82
2017-09-12T06:41:44.296Z,57.82
2017-09-12T06:42:24.751Z,57.92
2017-09-12T06:43:05.200Z,57.53
2017-09-12T06:43:45.630Z,57.34
2017-09-12T06:44:26.097Z,57.72
2017-09-12T06:45:06.545Z,57.72
2017-09-12T06:45:47.008Z,57.72
2017-09-12T06:46:27.462Z,57.72
2017-09-12T06:47:07.917Z,57.72
2017-09-12T06:47:48.378Z,57.43
2017-09-12T06:48:28.830Z,57.82
2017-09-12T06:49:09.289Z,57.92
2017-09-12T06:49:49.747Z,57.53
2017-09-12T06:50:30.199Z,57.62
2017-09-12T06:51:10.640Z,57.62
2017-09-12T06:51:51.102Z,57.69
2017-09-12T06:52:31.532Z,57.5
2017-09-12T06:53:11.993Z,57.6
2017-09-12T06:53:52.448Z,57.6
2017-09-12T06:54:33.005Z,57.5
2017-09-12T06:55:13.446Z,57.5
2017-09-12T06:55:53.902Z,57.69
2017-09-12T06:56:34.340Z,57.69
2017-09-12T06:57:14.799Z,57.62
2017-09-12T06:57:55.251Z,57.98
2017-09-12T06:58:35.700Z,57.6
2017-09-12T06:59:16.234Z,57.53
2017-09-12T06:59:56.693Z,57.6
2017-09-12T07:00:37.146Z,57.5
2017-09-12T07:01:17.591Z,57.5
2017-09-12T07:01:58.040Z,57.69
2017-09-12T07:02:38.499Z,57.69
2017-09-12T07:03:18.960Z,57.69
2017-09-12T07:03:59.417Z,57.79
2017-09-12T07:04:39.865Z,57.31
2017-09-12T07:05:20.324Z,57.4
2017-09-12T07:06:00.782Z,57.31
2017-09-12T07:06:41.229Z,57.12
2017-09-12T07:07:21.687Z,57.5
2017-09-12T07:08:02.137Z,57.5
2017-09-12T07:08:42.592Z,57.5
2017-09-12T07:09:23.036Z,57.5
2017-09-12T07:10:03.490Z,57.69
2017-09-12T07:10:43.943Z,56.95
2017-09-12T07:11:24.400Z,57.31
2017-09-12T07:12:04.853Z,56.73
2017-09-12T07:12:45.306Z,56.85
2017-09-12T07:13:25.837Z,56.95
2017-09-12T07:14:06.298Z,56.95
2017-09-12T07:14:46.759Z,56.85
2017-09-12T07:15:27.271Z,56.76
2017-09-12T07:16:07.726Z,56.85
2017-09-12T07:16:48.180Z,56.76
2017-09-12T07:17:28.661Z,56.95
2017-09-12T07:18:09.123Z,56.85
2017-09-12T07:18:49.582Z,56.57
2017-09-12T07:19:30.041Z,56.37
2017-09-12T07:20:10.500Z,56.27
2017-09-12T07:20:50.996Z,56.47
2017-09-12T07:21:31.444Z,56.37
2017-09-12T07:22:11.902Z,56.37
2017-09-12T07:22:52.363Z,56.37
2017-09-12T07:23:32.821Z,56.18
2017-09-12T07:24:13.291Z,55.99
2017-09-12T07:24:53.747Z,55.89
2017-09-12T07:25:34.251Z,56.3
2017-09-12T07:26:14.702Z,55.63
2017-09-12T07:26:55.163Z,55.63
2017-09-12T07:27:35.621Z,55.92
2017-09-12T07:28:16.109Z,55.44
2017-09-12T07:28:56.570Z,55.44
2017-09-12T07:29:37.021Z,55.63
2017-09-12T07:30:17.479Z,55.24
2017-09-12T07:30:57.942Z,55.54
2017-09-12T07:31:38.400Z,55.36
2017-09-12T07:32:18.858Z,55.15
2017-09-12T07:32:59.308Z,55.15
2017-09-12T07:33:39.760Z,55.27
2017-09-12T07:34:20.215Z,55.05
2017-09-12T07:35:00.681Z,55.27
2017-09-12T07:35:41.143Z,55.36
2017-09-12T07:36:21.594Z,54.69
2017-09-12T07:37:02.056Z,54.88
2017-09-12T07:37:42.509Z,54.79
2017-09-12T07:38:22.965Z,54.79
2017-09-12T07:39:03.422Z,54.88
2017-09-12T07:39:43.873Z,54.98
2017-09-12T07:40:24.326Z,54.98
2017-09-12T07:41:04.783Z,54.4
2017-09-12T07:42:57.317Z,54.21
2017-09-12T07:43:37.775Z,54.11
2017-09-12T07:44:18.224Z,54.02
2017-09-12T07:44:58.686Z,54.11
2017-09-12T07:45:39.142Z,54.21
2017-09-12T07:46:19.615Z,54.4
2017-09-12T07:47:00.072Z,54.21
2017-09-12T07:47:40.530Z,54.21
2017-09-12T07:48:20.983Z,54.21
2017-09-12T07:49:01.430Z,53.85
2017-09-12T07:49:41.886Z,54.02
2017-09-12T07:50:22.346Z,53.53
2017-09-12T07:51:02.797Z,54.05
2017-09-12T07:51:43.249Z,53.85
2017-09-12T07:52:23.704Z,53.95
2017-09-12T07:53:04.154Z,53.85
2017-09-12T07:53:44.608Z,53.85
2017-09-12T07:54:25.057Z,53.47
2017-09-12T07:55:05.512Z,53.56
2017-09-12T07:55:45.966Z,53.66
2017-09-12T07:56:26.413Z,53.66
2017-09-12T07:57:06.865Z,53.56
2017-09-12T07:57:47.324Z,53.56
2017-09-12T07:58:27.779Z,53.66
2017-09-12T07:59:08.238Z,53.66
2017-09-12T07:59:48.696Z,53.66
2017-09-12T08:00:29.148Z,53.85
2017-09-12T08:01:09.703Z,53.27
2017-09-12T08:01:50.197Z,52.98
2017-09-12T08:02:30.653Z,52.98
2017-09-12T08:03:11.096Z,52.89
2017-09-12T08:03:51.548Z,53.08
2017-09-12T08:04:32.007Z,53.08
2017-09-12T08:05:12.458Z,53.17
2017-09-12T08:05:52.915Z,52.98
2017-09-12T08:06:33.366Z,53.27
2017-09-12T08:07:13.815Z,52.89
2017-09-12T08:07:54.264Z,52.59
2017-09-12T08:08:34.719Z,52.79
2017-09-12T08:09:15.180Z,52.89
2017-09-12T08:09:55.642Z,52.69
2017-09-12T08:10:36.096Z,52.59
2017-09-12T08:11:16.550Z,52.62
2017-09-12T08:11:57.002Z,52.31
2017-09-12T08:12:37.454Z,52.31
2017-09-12T08:13:17.903Z,52.5
2017-09-12T08:13:58.347Z,52.53
2017-09-12T08:14:38.796Z,52.14
2017-09-12T08:15:19.243Z,52.04
2017-09-12T08:15:59.704Z,52.33
2017-09-12T08:16:40.166Z,52.04
2017-09-12T08:17:20.603Z,52.04
2017-09-12T08:18:01.053Z,52.14
2017-09-12T08:18:41.499Z,52.14
2017-09-12T08:19:21.956Z,52.31
2017-09-12T08:20:02.411Z,52.11
2017-09-12T08:20:42.862Z,52.21
2017-09-12T08:21:23.395Z,52.31
2017-09-12T08:22:03.848Z,52.5
2017-09-12T08:22:44.298Z,52.59
2017-09-12T08:23:24.807Z,52.59
2017-09-12T08:24:05.264Z,52.5
2017-09-12T08:24:45.725Z,52.31
2017-09-12T08:25:26.309Z,52.31
2017-09-12T08:26:06.765Z,52.79
2017-09-12T08:26:47.212Z,52.69
2017-09-12T08:27:27.870Z,52.89
2017-09-12T08:28:08.331Z,52.69
2017-09-12T08:28:48.783Z,52.69
2017-09-12T08:29:29.263Z,52.69
2017-09-12T08:30:09.692Z,52.79
2017-09-12T08:30:50.149Z,52.89
2017-09-12T08:31:30.604Z,52.67
2017-09-12T08:32:11.072Z,52.57
2017-09-12T08:32:51.523Z,52.67
2017-09-12T08:33:31.957Z,52.47
2017-09-12T08:34:12.416Z,52.67
2017-09-12T08:34:52.864Z,52.57
2017-09-12T08:35:33.390Z,52.37
2017-09-12T08:36:13.849Z,53.15
2017-09-12T08:36:54.305Z,53.34
2017-09-12T08:37:34.748Z,52.95
2017-09-12T08:38:15.195Z,53.15
2017-09-12T08:38:55.645Z,53.15
2017-09-12T08:39:36.109Z,52.76
2017-09-12T08:40:16.552Z,52.86
2017-09-12T08:40:56.990Z,52.67
2017-09-12T08:41:37.439Z,52.95
2017-09-12T08:42:17.898Z,52.83
2017-09-12T08:42:58.353Z,52.86
2017-09-12T08:43:38.804Z,52.86
2017-09-12T08:44:19.255Z,53.13
2017-09-12T08:44:59.714Z,52.83
2017-09-12T08:45:40.163Z,53.13
2017-09-12T08:46:20.605Z,53.13